createdAt,value
2023-03-15T00:01:16.935Z,95973.28
2023-03-15T00:03:45.954Z,95985.41
2023-03-15T00:06:15.616Z,95969.19
2023-03-15T00:08:47.936Z,96062.19
2023-03-15T00:11:17.089Z,96013.44
2023-03-15T00:13:47.059Z,96065.97
2023-03-15T00:16:17.538Z,96002.63
2023-03-15T00:18:47.157Z,96065.00
2023-03-15T00:21:16.246Z,96024.03
2023-03-15T00:23:50.361Z,96071.34
2023-03-15T00:26:19.023Z,96068.66
2023-03-15T00:28:48.562Z,96055.81
2023-03-15T00:31:19.507Z,96015.44
2023-03-15T00:33:48.560Z,96065.09
2023-03-15T00:36:17.770Z,96036.28
2023-03-15T00:38:46.283Z,96150.25
2023-03-15T00:41:17.781Z,96111.16
2023-03-15T00:43:48.107Z,96048.31
2023-03-15T00:46:18.099Z,96113.84
2023-03-15T00:48:49.871Z,96135.53
2023-03-15T00:51:22.203Z,96099.84
2023-03-15T00:53:52.162Z,96131.13
2023-03-15T00:56:22.797Z,96122.88
2023-03-15T00:58:53.768Z,96137.28
2023-03-15T01:01:25.889Z,96089.59
2023-03-15T01:03:54.580Z,96116.56
2023-03-15T01:06:27.821Z,96124.81
2023-03-15T01:09:05.860Z,96168.53
2023-03-15T01:11:34.405Z,96069.94
2023-03-15T01:14:05.172Z,96067.38
2023-03-15T01:16:33.482Z,96084.44
2023-03-15T01:19:01.839Z,96078.19
2023-03-15T01:21:30.058Z,96118.69
2023-03-15T01:23:58.236Z,95892.06
2023-03-15T01:26:26.470Z,96134.59
2023-03-15T01:28:55.107Z,96162.91
2023-03-15T01:31:27.435Z,96122.22
2023-03-15T01:33:56.138Z,96149.09
2023-03-15T01:36:25.531Z,96147.19
2023-03-15T01:38:54.998Z,96161.53
2023-03-15T01:41:28.833Z,96150.34
2023-03-15T01:43:57.637Z,96088.56
2023-03-15T01:46:34.165Z,96157.66
2023-03-15T01:49:25.322Z,96164.59
2023-03-15T01:51:58.516Z,96171.91
2023-03-15T01:54:34.281Z,96179.66
2023-03-15T01:57:07.632Z,96166.84
2023-03-15T01:59:40.433Z,96136.81
2023-03-15T02:02:14.898Z,96177.81
2023-03-15T02:04:47.954Z,96151.53
2023-03-15T02:07:19.710Z,96208.53
2023-03-15T02:09:55.753Z,96181.56
2023-03-15T02:12:23.956Z,96219.56
2023-03-15T02:14:54.414Z,96185.19
2023-03-15T02:17:34.888Z,96105.13
2023-03-15T02:20:17.502Z,96200.56
2023-03-15T02:22:53.685Z,96210.91
2023-03-15T02:25:34.376Z,96203.44
2023-03-15T02:28:07.536Z,96224.97
2023-03-15T02:30:36.986Z,96193.91
2023-03-15T02:33:10.256Z,96239.88
2023-03-15T02:35:38.500Z,96233.06
2023-03-15T02:38:06.696Z,96231.63
2023-03-15T02:40:34.958Z,96239.31
2023-03-15T02:43:08.446Z,96194.81
2023-03-15T02:45:39.660Z,96265.75
2023-03-15T02:48:08.731Z,96248.88
2023-03-15T02:50:37.988Z,96254.94
2023-03-15T02:53:06.627Z,96197.00
2023-03-15T02:55:35.531Z,96283.66
2023-03-15T02:58:05.122Z,96293.06
2023-03-15T03:00:33.585Z,96287.44
2023-03-15T03:03:06.030Z,96289.81
2023-03-15T03:05:34.481Z,96325.28
2023-03-15T03:08:27.050Z,96270.47
2023-03-15T03:10:55.437Z,96265.78
2023-03-15T03:13:25.143Z,96323.78
2023-03-15T03:15:58.591Z,96299.59
2023-03-15T03:18:30.460Z,96269.75
2023-03-15T03:21:00.159Z,96329.84
2023-03-15T03:23:28.620Z,96311.47
2023-03-15T03:25:58.369Z,96321.19
2023-03-15T03:28:31.567Z,96329.59
2023-03-15T03:31:00.928Z,96307.47
2023-03-15T03:33:34.787Z,96290.69
2023-03-15T03:36:04.096Z,96362.75
2023-03-15T03:38:32.350Z,96357.16
2023-03-15T03:41:03.043Z,96380.41
2023-03-15T03:43:34.841Z,96359.06
2023-03-15T03:46:03.536Z,96368.59
2023-03-15T03:48:33.406Z,96320.50
2023-03-15T03:51:01.664Z,96364.63
2023-03-15T03:53:29.915Z,96369.81
2023-03-15T03:55:58.174Z,96334.56
2023-03-15T03:58:26.592Z,96379.69
2023-03-15T04:01:01.823Z,96360.47
2023-03-15T04:03:33.361Z,96376.66
2023-03-15T04:06:08.736Z,96406.25
2023-03-15T04:08:42.118Z,96418.56
2023-03-15T04:11:17.728Z,96386.16
2023-03-15T04:13:50.725Z,96362.75
2023-03-15T04:16:20.576Z,96429.28
2023-03-15T04:18:58.905Z,96415.09
2023-03-15T04:21:31.919Z,96372.09
2023-03-15T04:24:10.192Z,96369.59
2023-03-15T04:26:58.007Z,96390.13
2023-03-15T04:29:56.344Z,96411.22
2023-03-15T04:32:42.648Z,96415.09
2023-03-15T04:35:22.721Z,96452.16
2023-03-15T04:38:04.271Z,96446.25
2023-03-15T04:40:52.878Z,96492.66
2023-03-15T04:43:42.276Z,96473.06
2023-03-15T04:46:28.928Z,96447.19
2023-03-15T04:49:17.982Z,96462.53
2023-03-15T04:51:58.123Z,96432.19
2023-03-15T04:54:46.639Z,96441.50
2023-03-15T04:57:25.986Z,96504.03
2023-03-15T05:00:07.664Z,96450.84
2023-03-15T05:02:58.808Z,96501.25
2023-03-15T05:05:51.727Z,96474.72
2023-03-15T05:08:40.191Z,96425.78
2023-03-15T05:11:27.088Z,96500.94
2023-03-15T05:14:08.657Z,96434.97
2023-03-15T05:16:54.009Z,96475.81
2023-03-15T05:19:46.649Z,96483.56
2023-03-15T05:22:34.854Z,96447.50
2023-03-15T05:25:21.834Z,96521.25
2023-03-15T05:28:26.241Z,96478.59
2023-03-15T05:30:59.465Z,96482.41
2023-03-15T05:33:47.547Z,96573.84
2023-03-15T05:36:30.899Z,96463.97
2023-03-15T05:39:24.369Z,96501.69
2023-03-15T05:41:58.669Z,96493.09
2023-03-15T05:44:45.312Z,96515.75
2023-03-15T05:47:39.050Z,96520.00
2023-03-15T05:50:08.343Z,96467.06
2023-03-15T05:52:52.103Z,96470.91
2023-03-15T05:55:44.538Z,96494.22
2023-03-15T05:58:30.841Z,96485.94
2023-03-15T06:01:07.718Z,96501.13
2023-03-15T06:03:55.540Z,96466.66
2023-03-15T06:06:28.387Z,96459.13
2023-03-15T06:08:56.796Z,96488.09
2023-03-15T06:11:26.427Z,96517.09
2023-03-15T06:13:55.106Z,96519.38
2023-03-15T06:16:37.294Z,96484.78
2023-03-15T06:19:06.179Z,96299.94
2023-03-15T06:21:34.459Z,96481.50
2023-03-15T06:24:06.413Z,96489.44
2023-03-15T06:26:37.529Z,96481.06
2023-03-15T06:29:07.271Z,96527.03
2023-03-15T06:31:35.672Z,96528.91
2023-03-15T06:34:06.834Z,96507.78
2023-03-15T06:36:36.968Z,96529.34
2023-03-15T06:39:05.772Z,96531.81
2023-03-15T06:41:34.109Z,96519.06
2023-03-15T06:44:12.586Z,96526.22
2023-03-15T06:46:42.163Z,96596.00
2023-03-15T06:49:10.904Z,96557.81
2023-03-15T06:51:39.358Z,96519.69
2023-03-15T06:54:07.973Z,96565.69
2023-03-15T06:56:38.442Z,96583.28
2023-03-15T06:59:07.517Z,96525.41
2023-03-15T07:01:43.336Z,96517.22
2023-03-15T07:04:11.621Z,96548.19
2023-03-15T07:06:40.753Z,96479.28
2023-03-15T07:09:11.179Z,96487.97
2023-03-15T07:11:39.437Z,96528.91
2023-03-15T07:14:07.699Z,96518.97
2023-03-15T07:16:37.270Z,96518.22
2023-03-15T07:19:05.553Z,96534.28
2023-03-15T07:21:33.854Z,96551.03
2023-03-15T07:24:02.265Z,96524.59
2023-03-15T07:26:30.514Z,96537.78
2023-03-15T07:28:58.763Z,96490.34
2023-03-15T07:31:30.009Z,96619.88
2023-03-15T07:33:59.589Z,96590.13
2023-03-15T07:36:27.837Z,96558.25
2023-03-15T07:38:56.063Z,96554.00
2023-03-15T07:41:24.283Z,96501.00
2023-03-15T07:43:59.689Z,96566.75
2023-03-15T07:46:27.933Z,96538.72
2023-03-15T07:48:56.425Z,96525.06
2023-03-15T07:51:26.071Z,96535.59
2023-03-15T07:53:54.296Z,96563.56
2023-03-15T07:56:22.751Z,96514.69
2023-03-15T07:58:51.035Z,96596.97
2023-03-15T08:01:19.907Z,96550.75
2023-03-15T08:03:48.123Z,96579.84
2023-03-15T08:06:16.406Z,96581.13
2023-03-15T08:08:46.710Z,96560.31
2023-03-15T08:11:14.937Z,96615.44
2023-03-15T08:13:43.169Z,96561.38
2023-03-15T08:16:11.422Z,96585.22
2023-03-15T08:18:39.673Z,96555.97
2023-03-15T08:21:07.923Z,96572.22
2023-03-15T08:23:36.245Z,96590.56
2023-03-15T08:26:06.402Z,96612.31
2023-03-15T08:28:34.638Z,96601.84
2023-03-15T08:31:02.852Z,96590.91
2023-03-15T08:33:31.853Z,96588.41
2023-03-15T08:36:00.135Z,96591.72
2023-03-15T08:38:28.381Z,96568.84
2023-03-15T08:40:58.134Z,96582.38
2023-03-15T08:43:28.082Z,96629.44
2023-03-15T08:46:00.970Z,96618.13
2023-03-15T08:48:30.266Z,96498.19
2023-03-15T08:51:03.461Z,96591.38
2023-03-15T08:53:32.033Z,96585.84
2023-03-15T08:56:00.877Z,96560.47
2023-03-15T08:58:30.417Z,96605.09
2023-03-15T09:00:58.695Z,96615.88
2023-03-15T09:03:51.774Z,96557.53
2023-03-15T09:06:20.248Z,96625.44
2023-03-15T09:08:48.496Z,96565.91
2023-03-15T09:11:16.794Z,96575.25
2023-03-15T09:13:46.343Z,96611.78
2023-03-15T09:16:14.764Z,96551.84
2023-03-15T09:18:44.101Z,96572.28
2023-03-15T09:21:12.388Z,96599.25
2023-03-15T09:23:40.582Z,96615.53
2023-03-15T09:26:08.803Z,96653.88
2023-03-15T09:28:37.015Z,96598.41
2023-03-15T09:31:08.405Z,96611.06
2023-03-15T09:33:36.840Z,96662.41
2023-03-15T09:36:06.067Z,96623.59
2023-03-15T09:38:34.503Z,96654.34
2023-03-15T09:41:03.805Z,96672.09
2023-03-15T09:44:03.990Z,96613.06
2023-03-15T09:46:42.346Z,96620.41
2023-03-15T09:49:18.259Z,96605.41
2023-03-15T09:51:51.025Z,96751.25
2023-03-15T09:54:24.740Z,96641.47
2023-03-15T09:56:58.281Z,96598.53
2023-03-15T09:59:32.785Z,96610.00
2023-03-15T10:02:17.830Z,96637.91
2023-03-15T10:04:48.785Z,96625.50
2023-03-15T10:07:17.642Z,96667.78
2023-03-15T10:09:46.778Z,96632.31
2023-03-15T10:12:21.036Z,96629.47
2023-03-15T10:15:19.822Z,96622.63
2023-03-15T10:18:07.981Z,96651.44
2023-03-15T10:20:42.371Z,96625.72
2023-03-15T10:23:18.082Z,96671.84
2023-03-15T10:25:48.199Z,96657.06
2023-03-15T10:28:25.566Z,96669.69
2023-03-15T10:30:54.220Z,96626.22
2023-03-15T10:33:32.017Z,96621.22
2023-03-15T10:36:11.265Z,96659.56
2023-03-15T10:38:41.935Z,96607.03
2023-03-15T10:41:17.863Z,96635.66
2023-03-15T10:44:02.010Z,96627.38
2023-03-15T10:46:30.342Z,96660.72
2023-03-15T10:49:01.904Z,96672.16
2023-03-15T10:51:33.170Z,96636.09
2023-03-15T10:54:06.622Z,96592.06
2023-03-15T10:56:44.868Z,96642.41
2023-03-15T10:59:18.949Z,96737.13
2023-03-15T11:01:49.832Z,96653.47
2023-03-15T11:04:26.831Z,96711.72
2023-03-15T11:07:04.444Z,96689.59
2023-03-15T11:09:41.777Z,96652.75
2023-03-15T11:12:11.929Z,96681.16
2023-03-15T11:14:43.811Z,96660.66
2023-03-15T11:17:19.745Z,96649.50
2023-03-15T11:19:56.934Z,96645.06
2023-03-15T11:22:25.842Z,96663.41
2023-03-15T11:24:55.756Z,96591.44
2023-03-15T11:27:26.123Z,96695.22
2023-03-15T11:29:59.960Z,96659.97
2023-03-15T11:32:31.649Z,96639.50
2023-03-15T11:35:06.559Z,96537.34
2023-03-15T11:37:43.634Z,96661.69
2023-03-15T11:40:19.278Z,96666.03
2023-03-15T11:42:55.561Z,96645.09
2023-03-15T11:45:34.472Z,96646.19
2023-03-15T11:48:28.088Z,96658.66
2023-03-15T11:50:59.940Z,96626.72
2023-03-15T11:53:35.755Z,96655.34
2023-03-15T11:56:23.525Z,96655.75
2023-03-15T11:59:08.704Z,96598.69
2023-03-15T12:01:37.032Z,96654.44
2023-03-15T12:04:39.184Z,96648.66
2023-03-15T12:07:29.916Z,96650.47
2023-03-15T12:09:59.372Z,96708.94
2023-03-15T12:12:40.898Z,96688.22
2023-03-15T12:15:45.659Z,96627.91
2023-03-15T12:18:23.209Z,96632.25
2023-03-15T12:21:07.461Z,96640.44
2023-03-15T12:23:46.483Z,96676.13
2023-03-15T12:26:27.800Z,96639.78
2023-03-15T12:29:09.334Z,96591.63
2023-03-15T12:31:58.439Z,96648.34
2023-03-15T12:34:38.133Z,96643.25
2023-03-15T12:37:10.671Z,96601.56
2023-03-15T12:39:47.335Z,96634.94
2023-03-15T12:43:03.852Z,96682.97
2023-03-15T12:45:43.552Z,96737.13
2023-03-15T12:48:29.603Z,96657.78
2023-03-15T12:51:06.814Z,96652.91
2023-03-15T12:53:50.741Z,96685.84
2023-03-15T12:56:42.048Z,96643.75
2023-03-15T12:59:31.913Z,96646.63
2023-03-15T13:02:07.467Z,96641.16
2023-03-15T13:04:36.303Z,96658.31
2023-03-15T13:07:45.605Z,96659.88
2023-03-15T13:10:36.675Z,96695.28
2023-03-15T13:13:16.341Z,96685.44
2023-03-15T13:15:59.366Z,96685.56
2023-03-15T13:18:34.351Z,96668.59
2023-03-15T13:21:15.109Z,96692.47
2023-03-15T13:23:45.473Z,96689.59
2023-03-15T13:26:33.257Z,96659.28
2023-03-15T13:29:09.328Z,96661.53
2023-03-15T13:31:39.164Z,96632.59
2023-03-15T13:34:15.761Z,96657.75
2023-03-15T13:36:46.940Z,96726.94
2023-03-15T13:39:23.246Z,96636.03
2023-03-15T13:41:58.497Z,96658.41
2023-03-15T13:44:31.011Z,96572.78
2023-03-15T13:47:00.594Z,96712.38
2023-03-15T13:49:33.991Z,96664.63
2023-03-15T13:52:05.429Z,96671.28
2023-03-15T13:54:35.130Z,96690.28
2023-03-15T13:57:07.728Z,96683.91
2023-03-15T13:59:43.052Z,96634.84
2023-03-15T14:02:19.603Z,96637.78
2023-03-15T14:04:55.409Z,96701.69
2023-03-15T14:07:30.030Z,96669.28
2023-03-15T14:10:24.735Z,96706.78
2023-03-15T14:12:54.501Z,96670.75
2023-03-15T14:15:27.996Z,96734.56
2023-03-15T14:18:02.484Z,96678.78
2023-03-15T14:20:41.298Z,96694.78
2023-03-15T14:23:14.217Z,96657.28
2023-03-15T14:25:42.958Z,96699.09
2023-03-15T14:28:17.064Z,96667.41
2023-03-15T14:30:54.838Z,96693.72
2023-03-15T14:33:32.805Z,96467.47
2023-03-15T14:36:03.854Z,96680.63
2023-03-15T14:38:37.851Z,96701.91
2023-03-15T14:41:23.277Z,96636.25
2023-03-15T14:43:51.542Z,96636.91
2023-03-15T14:46:21.364Z,96664.50
2023-03-15T14:48:51.435Z,96703.88
2023-03-15T14:51:22.095Z,96701.56
2023-03-15T14:53:54.040Z,96665.06
2023-03-15T14:56:22.278Z,96647.06
2023-03-15T14:58:54.057Z,96664.38
2023-03-15T15:01:28.306Z,96683.66
2023-03-15T15:04:02.355Z,96686.88
2023-03-15T15:06:32.946Z,96699.63
2023-03-15T15:09:06.451Z,96681.50
2023-03-15T15:11:34.820Z,96702.75
2023-03-15T15:14:03.066Z,96693.06
2023-03-15T15:16:32.675Z,96688.19
2023-03-15T15:19:01.502Z,96682.06
2023-03-15T15:21:34.053Z,96684.91
2023-03-15T15:24:04.444Z,96673.91
2023-03-15T15:26:34.509Z,96675.00
2023-03-15T15:29:03.120Z,96668.13
2023-03-15T15:31:34.726Z,96731.78
2023-03-15T15:34:03.313Z,96737.78
2023-03-15T15:36:33.865Z,96680.19
2023-03-15T15:39:07.152Z,96740.94
2023-03-15T15:41:36.266Z,96666.00
2023-03-15T15:44:16.469Z,96690.22
2023-03-15T15:46:46.183Z,96675.66
2023-03-15T15:49:15.516Z,96697.50
2023-03-15T15:51:46.558Z,96672.88
2023-03-15T15:54:17.822Z,96702.47
2023-03-15T15:56:50.853Z,96667.16
2023-03-15T15:59:19.784Z,96709.91
2023-03-15T16:02:00.255Z,96694.03
2023-03-15T16:04:55.218Z,96683.19
2023-03-15T16:07:23.824Z,96694.19
2023-03-15T16:09:58.054Z,96718.56
2023-03-15T16:12:28.407Z,96635.25
2023-03-15T16:14:57.163Z,96681.91
2023-03-15T16:17:27.266Z,96707.78
2023-03-15T16:19:56.097Z,96692.66
2023-03-15T16:22:27.122Z,96747.91
2023-03-15T16:24:58.147Z,96706.56
2023-03-15T16:27:28.822Z,96675.63
2023-03-15T16:29:57.374Z,96735.19
2023-03-15T16:32:42.916Z,96752.47
2023-03-15T16:35:15.630Z,96759.41
2023-03-15T16:37:45.430Z,96741.00
2023-03-15T16:40:21.453Z,96738.06
2023-03-15T16:42:50.747Z,96752.00
2023-03-15T16:45:19.472Z,96668.34
2023-03-15T16:47:49.598Z,96793.50
2023-03-15T16:50:18.993Z,96762.88
2023-03-15T16:52:51.153Z,96761.66
2023-03-15T16:55:24.988Z,96796.84
2023-03-15T16:57:53.394Z,96774.78
2023-03-15T17:00:23.030Z,96786.31
2023-03-15T17:03:19.849Z,96819.97
2023-03-15T17:05:50.762Z,96772.06
2023-03-15T17:08:21.260Z,96776.88
2023-03-15T17:11:17.712Z,96794.25
2023-03-15T17:13:46.110Z,96790.59
2023-03-15T17:16:16.575Z,96741.19
2023-03-15T17:18:47.708Z,96807.63
2023-03-15T17:21:19.674Z,96780.03
2023-03-15T17:23:49.513Z,96839.75
2023-03-15T17:26:21.984Z,96821.56
2023-03-15T17:28:51.167Z,96796.78
2023-03-15T17:31:25.633Z,96814.88
2023-03-15T17:33:55.526Z,96792.66
2023-03-15T17:36:25.752Z,96812.84
2023-03-15T17:38:55.466Z,96764.22
2023-03-15T17:41:27.846Z,96904.25
2023-03-15T17:43:56.437Z,96841.72
2023-03-15T17:46:31.254Z,96777.94
2023-03-15T17:49:02.944Z,96830.16
2023-03-15T17:51:34.307Z,96935.09
2023-03-15T17:54:03.155Z,96802.66
2023-03-15T17:56:32.622Z,96810.75
2023-03-15T17:59:01.347Z,96761.78
2023-03-15T18:01:30.245Z,96797.69
2023-03-15T18:03:59.947Z,96800.19
2023-03-15T18:06:28.212Z,96805.06
2023-03-15T18:08:56.489Z,96831.47
2023-03-15T18:11:27.887Z,96864.94
2023-03-15T18:13:56.922Z,96847.97
2023-03-15T18:16:25.759Z,96832.03
2023-03-15T18:18:54.158Z,96866.00
2023-03-15T18:21:27.406Z,96785.72
2023-03-15T18:23:55.985Z,96863.81
2023-03-15T18:26:24.582Z,96895.81
2023-03-15T18:28:52.952Z,96858.84
2023-03-15T18:31:23.601Z,96735.34
2023-03-15T18:33:53.827Z,96886.03
2023-03-15T18:36:23.755Z,96866.72
2023-03-15T18:38:52.617Z,96825.44
2023-03-15T18:41:23.586Z,96866.31
2023-03-15T18:43:52.839Z,96851.56
2023-03-15T18:46:24.324Z,96875.03
2023-03-15T18:48:54.407Z,96924.66
2023-03-15T18:51:28.208Z,96850.97
2023-03-15T18:53:56.996Z,96841.16
2023-03-15T18:56:28.086Z,96837.75
2023-03-15T18:58:56.286Z,96872.66
2023-03-15T19:01:29.657Z,96855.94
2023-03-15T19:04:01.286Z,96874.09
2023-03-15T19:06:56.279Z,96918.00
2023-03-15T19:09:52.448Z,96864.00
2023-03-15T19:12:20.989Z,96908.63
2023-03-15T19:14:49.396Z,96888.22
2023-03-15T19:17:18.205Z,96914.13
2023-03-15T19:19:46.399Z,96864.19
2023-03-15T19:22:16.129Z,96874.56
2023-03-15T19:24:44.391Z,96843.47
2023-03-15T19:27:12.711Z,96849.78
2023-03-15T19:29:41.674Z,96858.66
2023-03-15T19:32:10.032Z,96854.97
2023-03-15T19:34:38.340Z,96867.50
2023-03-15T19:37:06.769Z,96871.22
2023-03-15T19:39:36.421Z,96840.22
2023-03-15T19:42:05.094Z,96922.53
2023-03-15T19:44:33.714Z,96819.38
2023-03-15T19:47:02.081Z,96860.56
2023-03-15T19:49:30.410Z,96858.91
2023-03-15T19:51:58.691Z,96898.31
2023-03-15T19:54:27.774Z,96899.88
2023-03-15T19:56:58.589Z,96896.69
2023-03-15T19:59:27.184Z,96952.22
2023-03-15T20:01:55.616Z,96885.03
2023-03-15T20:04:24.050Z,96893.91
2023-03-15T20:06:52.398Z,96797.31
2023-03-15T20:09:20.841Z,96867.91
2023-03-15T20:11:49.161Z,96855.59
2023-03-15T20:14:20.639Z,96895.84
2023-03-15T20:16:49.043Z,96920.63
2023-03-15T20:19:17.325Z,96880.13
2023-03-15T20:21:45.586Z,96917.72
2023-03-15T20:24:13.927Z,96905.84
2023-03-15T20:26:43.064Z,96958.69
2023-03-15T20:29:12.701Z,96912.16
2023-03-15T20:31:42.395Z,96933.78
2023-03-15T20:34:12.129Z,96937.50
2023-03-15T20:36:41.799Z,96909.56
2023-03-15T20:39:10.792Z,96889.34
2023-03-15T20:41:39.273Z,96960.81
2023-03-15T20:44:08.499Z,96951.47
2023-03-15T20:46:37.982Z,96910.78
2023-03-15T20:49:07.866Z,96950.06
2023-03-15T20:51:36.415Z,96939.72
2023-03-15T20:54:05.012Z,96927.63
2023-03-15T20:56:34.289Z,96951.66
2023-03-15T20:59:09.054Z,96931.91
2023-03-15T21:01:37.418Z,96940.53
2023-03-15T21:04:07.084Z,96888.22
2023-03-15T21:06:35.526Z,96973.63
2023-03-15T21:09:29.097Z,96950.50
2023-03-15T21:11:57.467Z,96960.97
2023-03-15T21:14:25.806Z,96966.22
2023-03-15T21:16:54.429Z,96944.69
2023-03-15T21:19:24.852Z,96933.25
2023-03-15T21:21:53.205Z,96889.25
2023-03-15T21:24:21.494Z,96895.53
2023-03-15T21:26:54.681Z,96952.78
2023-03-15T21:29:23.433Z,96952.78
2023-03-15T21:31:52.081Z,96960.75
2023-03-15T21:34:20.585Z,97008.25
2023-03-15T21:36:50.260Z,96962.56
2023-03-15T21:39:18.876Z,96984.81
2023-03-15T21:41:47.103Z,97017.66
2023-03-15T21:44:15.382Z,96980.00
2023-03-15T21:46:43.672Z,96985.09
2023-03-15T21:49:12.001Z,96952.78
2023-03-15T21:51:45.825Z,96904.00
2023-03-15T21:54:15.478Z,96983.06
2023-03-15T21:56:43.717Z,96998.56
2023-03-15T21:59:12.411Z,96990.56
2023-03-15T22:01:40.722Z,96999.25
2023-03-15T22:04:09.050Z,96993.25
2023-03-15T22:06:38.341Z,96948.47
2023-03-15T22:09:06.556Z,97002.78
2023-03-15T22:11:36.142Z,96947.72
2023-03-15T22:14:04.442Z,96942.19
2023-03-15T22:16:33.620Z,96964.50
2023-03-15T22:19:03.148Z,96930.72
2023-03-15T22:21:31.437Z,96953.06
2023-03-15T22:23:59.974Z,96991.09
2023-03-15T22:26:28.213Z,96993.28
2023-03-15T22:28:57.795Z,96988.94
2023-03-15T22:31:26.141Z,96998.78
2023-03-15T22:33:54.796Z,97022.47
2023-03-15T22:36:23.096Z,96958.28
2023-03-15T22:38:52.227Z,96992.78
2023-03-15T22:41:21.069Z,97000.38
2023-03-15T22:43:49.458Z,97012.47
2023-03-15T22:46:19.324Z,96932.94
2023-03-15T22:48:47.586Z,96981.94
2023-03-15T22:51:21.319Z,96994.53
2023-03-15T22:53:50.204Z,96952.13
2023-03-15T22:56:18.790Z,96954.56
2023-03-15T22:58:48.745Z,96955.88
2023-03-15T23:01:24.500Z,96946.97
2023-03-15T23:03:52.948Z,96962.22
2023-03-15T23:06:23.246Z,96957.13
2023-03-15T23:08:51.609Z,96977.63
2023-03-15T23:11:19.959Z,96994.44
2023-03-15T23:13:49.287Z,97002.97
2023-03-15T23:16:18.317Z,96952.66
2023-03-15T23:18:48.732Z,96919.16
2023-03-15T23:21:17.007Z,96976.28
2023-03-15T23:23:45.289Z,96954.88
2023-03-15T23:26:16.283Z,97005.97
2023-03-15T23:28:44.819Z,96801.91
2023-03-15T23:31:13.442Z,96945.78
2023-03-15T23:33:41.695Z,96933.31
2023-03-15T23:36:11.459Z,96962.28
2023-03-15T23:38:39.821Z,96960.72
2023-03-15T23:41:08.133Z,96974.97
2023-03-15T23:43:37.022Z,96974.47
2023-03-15T23:46:06.833Z,96975.13
2023-03-15T23:48:36.210Z,96948.22
2023-03-15T23:51:04.802Z,96933.31
2023-03-15T23:53:34.618Z,96974.97
2023-03-15T23:56:03.202Z,96952.72
2023-03-15T23:58:33.624Z,96995.38
